Time;durP1;ratioP1;P1;durP2;ratioP2;P2;SDS_P1;SDS_P2;PMS_P1;PMS_P2;Temp;Humidity;BMP_temperature;BMP_pressure;BME280_temperature;BME280_humidity;BME280_pressure;Samples;Min_cycle;Max_cycle;Signal;HPM_P1;HPM_P2
2023/05/29 00:03:50;;;;;;;8.40;3.00;;;;;;;10.79;68.74;100826.05;215035;1290;137994;-81
2023/05/29 00:08:51;;;;;;;10.20;3.60;;;;;;;10.75;69.42;100823.53;214590;1289;140785;-81
2023/05/29 00:13:51;;;;;;;8.20;3.40;;;;;;;10.69;69.99;100820.45;215367;1291;94487;-81
2023/05/29 00:18:51;;;;;;;7.40;3.10;;;;;;;10.61;69.69;100815.50;214593;1292;139861;-81
2023/05/29 00:23:52;;;;;;;8.20;3.00;;;;;;;10.54;69.57;100819.02;215092;1290;137731;-80
2023/05/29 00:28:52;;;;;;;9.30;3.50;;;;;;;10.49;70.07;100820.80;214382;1289;140433;-81
2023/05/29 00:33:53;;;;;;;9.10;3.10;;;;;;;10.43;70.21;100819.83;214805;1292;137944;-81
2023/05/29 00:38:53;;;;;;;10.70;3.50;;;;;;;10.36;70.24;100818.69;214400;1289;140762;-81
2023/05/29 00:43:53;;;;;;;7.00;2.80;;;;;;;10.32;71.34;100818.06;214908;1291;107893;-81
2023/05/29 00:48:54;;;;;;;6.90;2.80;;;;;;;10.25;71.54;100816.36;214477;1291;140362;-81
2023/05/29 00:53:55;;;;;;;9.50;3.10;;;;;;;10.19;71.59;100819.39;214614;1289;137922;-81
2023/05/29 00:58:55;;;;;;;8.30;3.30;;;;;;;10.15;72.75;100815.77;214026;1291;140120;-81
2023/05/29 01:03:57;;;;;;;9.20;3.50;;;;;;;10.09;72.67;100819.20;214790;1291;137862;-81
2023/05/29 01:08:58;;;;;;;7.80;3.20;;;;;;;10.02;72.46;100821.07;214227;1290;139835;-81
2023/05/29 01:14:02;;;;;;;9.90;3.40;;;;;;;9.96;73.07;100820.48;214760;1290;108118;-81
2023/05/29 01:19:34;;;;;;;9.80;3.10;;;;;;;9.88;73.47;100821.27;214208;1290;140969;-81
2023/05/29 01:24:48;;;;;;;9.30;3.70;;;;;;;9.82;73.51;100822.71;214488;1290;137718;-81
2023/05/29 01:29:51;;;;;;;8.40;3.00;;;;;;;9.76;74.23;100825.27;214392;1294;140100;-81
2023/05/29 01:34:52;;;;;;;9.70;2.90;;;;;;;9.71;73.78;100825.16;215096;1292;138164;-81
2023/05/29 01:39:52;;;;;;;7.30;2.90;;;;;;;9.66;74.11;100819.55;214709;1290;139590;-81
2023/05/29 01:44:54;;;;;;;8.10;2.70;;;;;;;9.59;74.75;100820.81;214899;1289;137838;-81
2023/05/29 01:49:55;;;;;;;7.30;3.00;;;;;;;9.52;75.26;100823.25;214576;1289;140277;-81
2023/05/29 01:54:56;;;;;;;9.10;2.90;;;;;;;9.44;75.10;100826.85;215061;1291;138097;-81
2023/05/29 01:59:56;;;;;;;7.30;2.90;;;;;;;9.40;75.40;100826.84;214447;1290;140940;-81
2023/05/29 02:04:57;;;;;;;7.80;3.30;;;;;;;9.34;75.01;100818.48;214906;1291;138000;-81
2023/05/29 02:09:57;;;;;;;7.40;3.40;;;;;;;9.32;74.58;100822.50;214220;1290;139915;-81
2023/05/29 02:14:57;;;;;;;10.00;3.20;;;;;;;9.28;74.82;100817.48;214467;1292;138139;-80
2023/05/29 02:19:58;;;;;;;7.20;2.90;;;;;;;9.24;75.25;100822.64;214110;1293;139826;-80
2023/05/29 02:24:58;;;;;;;10.80;3.40;;;;;;;9.21;75.81;100821.86;214751;1292;137794;-80
2023/05/29 02:29:59;;;;;;;9.40;3.70;;;;;;;9.19;76.15;100821.64;214067;1294;140497;-80
2023/05/29 02:35:00;;;;;;;8.30;3.70;;;;;;;9.16;76.87;100819.15;214491;1293;137857;-80
2023/05/29 02:40:00;;;;;;;12.50;3.60;;;;;;;9.13;77.08;100819.55;214100;1292;140291;-80
2023/05/29 02:45:00;;;;;;;11.30;3.60;;;;;;;9.11;77.18;100820.77;214353;1291;137947;-80
2023/05/29 02:50:02;;;;;;;9.40;4.00;;;;;;;9.10;77.54;100823.03;214235;1291;140362;-80
2023/05/29 02:55:05;;;;;;;10.70;3.60;;;;;;;9.09;78.02;100823.39;214671;1291;137649;-80
2023/05/29 03:00:07;;;;;;;9.60;4.00;;;;;;;9.07;78.70;100822.40;213941;1294;140246;-80
2023/05/29 03:05:09;;;;;;;9.80;4.40;;;;;;;9.07;79.18;100823.59;214724;1291;137815;-80
2023/05/29 03:10:09;;;;;;;8.50;3.80;;;;;;;9.09;80.17;100824.48;214247;1292;139996;-80
2023/05/29 03:15:10;;;;;;;10.30;4.30;;;;;;;9.11;80.88;100832.61;214606;1293;137947;-79
2023/05/29 03:20:11;;;;;;;10.70;4.00;;;;;;;9.13;80.52;100828.11;214051;1296;140319;-79
2023/05/29 03:25:11;;;;;;;13.90;4.10;;;;;;;9.16;80.97;100834.05;214918;1291;137690;-80
2023/05/29 03:30:12;;;;;;;11.20;3.90;;;;;;;9.18;81.54;100838.27;214215;1294;140022;-80
2023/05/29 03:35:13;;;;;;;10.70;3.70;;;;;;;9.21;81.71;100840.70;214548;1293;138222;-79
2023/05/29 03:40:13;;;;;;;13.50;3.80;;;;;;;9.25;81.99;100843.46;214083;1293;140919;-79
2023/05/29 03:45:13;;;;;;;8.30;4.00;;;;;;;9.30;81.91;100846.33;214660;1291;137941;-80
2023/05/29 03:50:15;;;;;;;9.80;3.80;;;;;;;9.36;81.84;100837.11;214081;1291;142356;-81
2023/05/29 03:55:16;;;;;;;10.60;3.90;;;;;;;9.40;81.77;100844.27;214900;1291;108040;-80
2023/05/29 04:00:18;;;;;;;11.80;4.20;;;;;;;9.45;81.98;100847.61;214176;1291;140228;-80
2023/05/29 04:05:18;;;;;;;9.40;4.10;;;;;;;9.51;81.71;100849.86;214707;1291;138100;-80
2023/05/29 04:10:18;;;;;;;9.60;4.00;;;;;;;9.56;82.22;100856.33;214297;1291;140270;-81
2023/05/29 04:15:19;;;;;;;11.10;5.30;;;;;;;9.63;82.44;100856.71;214478;1291;138322;-81
2023/05/29 04:20:20;;;;;;;12.60;5.50;;;;;;;9.70;82.53;100867.48;213855;1291;141841;-81
2023/05/29 04:25:23;;;;;;;14.30;6.40;;;;;;;9.77;82.70;100865.96;214660;1291;109740;-81
2023/05/29 04:30:24;;;;;;;13.40;4.90;;;;;;;9.86;82.94;100863.78;213719;1291;141194;-81
2023/05/29 04:35:24;;;;;;;11.80;4.30;;;;;;;9.93;82.74;100862.45;214368;1291;138601;-80
2023/05/29 04:40:25;;;;;;;10.10;4.60;;;;;;;10.01;82.75;100860.66;214065;1291;140569;-80
2023/05/29 04:45:25;;;;;;;10.80;4.50;;;;;;;10.10;82.65;100867.30;214770;1291;138149;-81
2023/05/29 04:50:30;;;;;;;9.80;4.50;;;;;;;10.19;83.00;100866.32;214132;1293;140457;-81
2023/05/29 04:55:31;;;;;;;13.20;4.30;;;;;;;10.33;84.09;100872.23;214758;1292;95111;-81
2023/05/29 05:00:31;;;;;;;10.70;4.10;;;;;;;10.48;84.13;100871.19;213982;1293;140433;-81
2023/05/29 05:05:33;;;;;;;12.80;4.40;;;;;;;10.64;84.21;100863.30;214763;1291;138912;-81
2023/05/29 05:10:33;;;;;;;13.90;5.10;;;;;;;10.83;84.62;100860.95;214122;1293;141012;-80
2023/05/29 05:15:34;;;;;;;12.60;5.60;;;;;;;11.08;84.31;100862.39;214489;1291;138352;-80
2023/05/29 05:20:34;;;;;;;17.30;5.80;;;;;;;11.37;84.74;100854.72;214148;1293;141025;-80
2023/05/29 05:25:35;;;;;;;10.70;4.80;;;;;;;11.81;84.18;100861.19;214740;1294;94568;-81
2023/05/29 05:30:35;;;;;;;13.20;4.90;;;;;;;12.43;84.74;100865.08;214025;1292;141331;-81
2023/05/29 05:35:36;;;;;;;11.70;4.40;;;;;;;13.20;82.89;100865.00;214932;1292;138397;-81
2023/05/29 05:40:37;;;;;;;10.50;4.30;;;;;;;14.06;81.11;100861.70;214371;1293;141242;-81
2023/05/29 05:45:41;;;;;;;8.30;3.80;;;;;;;15.01;79.41;100861.68;214672;1292;138370;-82
2023/05/29 05:50:42;;;;;;;10.80;4.10;;;;;;;15.99;76.59;100862.23;214197;1291;140629;-82
2023/05/29 05:55:43;;;;;;;15.00;4.40;;;;;;;16.98;73.86;100871.17;214490;1293;94998;-82
2023/05/29 06:00:43;;;;;;;9.90;3.80;;;;;;;17.88;70.34;100877.89;214373;1292;140634;-81
2023/05/29 06:05:43;;;;;;;11.00;3.60;;;;;;;18.67;68.73;100880.85;214663;1293;138233;-81
2023/05/29 06:10:44;;;;;;;9.30;4.00;;;;;;;19.37;65.64;100881.03;214311;1293;140307;-80
2023/05/29 06:15:45;;;;;;;11.10;4.30;;;;;;;20.03;64.01;100891.66;214964;1292;137981;-82
2023/05/29 06:20:46;;;;;;;11.60;3.90;;;;;;;20.86;62.46;100894.02;214511;1291;140119;-82
2023/05/29 06:25:46;;;;;;;12.10;4.10;;;;;;;21.69;59.79;100892.19;215066;1292;95187;-83
2023/05/29 06:30:47;;;;;;;9.90;3.70;;;;;;;22.33;57.34;100894.23;214336;1293;140517;-83
2023/05/29 06:35:50;;;;;;;9.60;4.10;;;;;;;22.78;55.15;100896.39;214949;1293;139037;-83
2023/05/29 06:40:51;;;;;;;9.50;3.60;;;;;;;23.34;53.39;100900.45;214406;1294;139743;-82
2023/05/29 06:45:51;;;;;;;8.50;3.50;;;;;;;23.75;51.88;100911.39;214982;1291;138264;-82
2023/05/29 06:50:52;;;;;;;10.00;3.80;;;;;;;24.13;50.34;100912.62;214455;1291;140371;-82
2023/05/29 06:55:53;;;;;;;11.60;4.20;;;;;;;24.53;48.90;100910.77;215382;1291;95413;-85
2023/05/29 07:00:53;;;;;;;13.00;3.90;;;;;;;24.67;47.09;100912.10;214563;1292;140359;-84
2023/05/29 07:05:54;;;;;;;10.00;4.00;;;;;;;24.76;46.86;100911.83;214971;1291;139413;-83
2023/05/29 07:10:55;;;;;;;12.80;4.00;;;;;;;24.90;45.55;100910.14;214245;1294;139623;-83
2023/05/29 07:15:55;;;;;;;7.90;3.20;;;;;;;25.04;45.07;100909.48;214802;1291;138075;-83
2023/05/29 07:20:56;;;;;;;12.20;3.60;;;;;;;25.23;43.75;100903.78;214257;1291;140143;-83
2023/05/29 07:25:56;;;;;;;9.90;3.20;;;;;;;24.88;43.03;100909.25;215401;1291;97612;-83
2023/05/29 07:30:57;;;;;;;11.70;3.30;;;;;;;25.02;43.57;100909.08;214473;1291;140212;-82
2023/05/29 07:35:57;;;;;;;10.40;3.20;;;;;;;25.44;42.51;100909.05;214916;1291;139320;-84
2023/05/29 07:40:58;;;;;;;12.80;4.20;;;;;;;25.54;41.52;100911.98;214462;1292;141264;-84
2023/05/29 07:45:58;;;;;;;9.90;3.70;;;;;;;25.46;41.83;100914.50;215210;1294;138199;-83
2023/05/29 07:50:59;;;;;;;12.90;3.80;;;;;;;25.60;41.94;100917.28;214655;1291;140497;-84
2023/05/29 07:55:59;;;;;;;9.90;3.40;;;;;;;25.81;41.20;100917.80;215151;1291;96278;-83
2023/05/29 08:01:00;;;;;;;11.80;3.70;;;;;;;26.16;41.66;100917.73;214218;1293;139412;-83
2023/05/29 08:06:01;;;;;;;6.90;2.50;;;;;;;26.49;41.69;100927.20;215098;1293;137944;-84
2023/05/29 08:11:01;;;;;;;8.90;3.00;;;;;;;27.23;40.93;100930.62;214346;1292;139489;-84
2023/05/29 08:16:02;;;;;;;14.10;3.70;;;;;;;27.88;40.24;100930.61;214996;1294;138206;-84
2023/05/29 08:21:03;;;;;;;9.20;2.90;;;;;;;28.50;39.04;100930.45;214810;1291;140314;-83
2023/05/29 08:26:03;;;;;;;10.50;3.30;;;;;;;29.13;38.06;100928.80;215193;1291;110048;-83
2023/05/29 08:31:04;;;;;;;8.60;2.90;;;;;;;29.80;37.72;100925.63;214461;1292;141119;-84
2023/05/29 08:36:05;;;;;;;8.10;3.00;;;;;;;30.52;36.78;100927.41;214872;1294;138559;-83
2023/05/29 08:41:07;;;;;;;8.60;3.00;;;;;;;31.25;35.54;100937.83;214419;1293;141836;-83
2023/05/29 08:46:08;;;;;;;10.80;3.20;;;;;;;31.91;34.67;100935.55;214909;1291;138972;-82
2023/05/29 08:51:10;;;;;;;7.80;3.30;;;;;;;32.44;34.00;100934.66;214663;1294;141484;-83
2023/05/29 08:56:10;;;;;;;8.60;3.60;;;;;;;32.91;32.80;100931.23;215148;1293;96243;-82
2023/05/29 09:01:11;;;;;;;8.80;3.30;;;;;;;33.38;32.48;100929.75;214501;1291;139101;-82
2023/05/29 09:06:12;;;;;;;9.00;3.30;;;;;;;33.81;31.11;100924.77;215218;1294;139522;-82
2023/05/29 09:11:12;;;;;;;6.70;3.00;;;;;;;33.93;30.97;100919.31;214874;1291;139987;-83
2023/05/29 09:16:15;;;;;;;11.00;3.30;;;;;;;34.33;31.07;100924.77;215622;1291;137901;-82
2023/05/29 09:21:27;;;;;;;6.60;3.00;;;;;;;34.77;30.12;100924.21;214784;1294;141201;-83
2023/05/29 09:26:28;;;;;;;6.60;3.00;;;;;;;35.06;29.97;100934.73;215104;1292;137699;-83
2023/05/29 09:31:28;;;;;;;10.90;3.90;;;;;;;35.38;29.29;100932.21;214364;1291;140923;-83
2023/05/29 09:36:29;;;;;;;7.40;2.80;;;;;;;35.76;28.52;100933.80;214962;1291;139445;-83
2023/05/29 09:41:31;;;;;;;7.10;3.20;;;;;;;35.82;28.24;100927.14;214651;1291;139985;-81
2023/05/29 09:46:34;;;;;;;7.90;3.30;;;;;;;35.50;27.02;100926.81;215771;1292;137694;-82
2023/05/29 09:51:34;;;;;;;9.50;3.80;;;;;;;35.44;27.87;100933.50;214765;1292;139236;-82
2023/05/29 09:56:35;;;;;;;11.00;3.80;;;;;;;35.73;27.33;100926.45;214982;1291;137837;-83
2023/05/29 10:01:36;;;;;;;9.30;3.70;;;;;;;35.72;27.02;100922.30;214305;1292;140943;-83
2023/05/29 10:06:38;;;;;;;6.50;3.10;;;;;;;35.77;27.20;100921.46;215342;1294;138103;-82
2023/05/29 10:11:43;;;;;;;8.40;3.20;;;;;;;36.00;27.42;100919.40;214660;1293;140344;-82
2023/05/29 10:16:46;;;;;;;7.20;3.00;;;;;;;36.34;27.63;100922.83;214733;1293;139894;-82
2023/05/29 10:21:47;;;;;;;7.10;3.20;;;;;;;36.56;27.18;100919.89;214327;1292;140459;-82
2023/05/29 10:26:52;;;;;;;6.70;3.10;;;;;;;36.76;27.00;100920.73;215003;1291;138560;-82
2023/05/29 10:32:32;;;;;;;9.00;3.40;;;;;;;37.12;26.59;100922.41;214429;1292;140629;-82
2023/05/29 10:37:50;;;;;;;7.70;3.00;;;;;;;37.14;25.97;100924.94;214577;1293;96669;-83
2023/05/29 10:42:58;;;;;;;6.90;2.90;;;;;;;36.81;25.10;100922.20;214037;1293;301316;-81
2023/05/29 10:48:10;;;;;;;6.30;3.10;;;;;;;36.25;25.34;100920.84;214708;1292;137599;-83
2023/05/29 10:53:25;;;;;;;8.20;3.20;;;;;;;35.83;25.39;100916.64;214321;1292;140460;-83
2023/05/29 10:58:27;;;;;;;7.80;3.00;;;;;;;35.70;25.67;100917.05;214804;1292;138417;-83
2023/05/29 11:03:31;;;;;;;5.70;2.70;;;;;;;35.73;25.73;100916.36;214298;1292;140115;-83
2023/05/29 11:08:44;;;;;;;6.80;3.20;;;;;;;35.97;25.85;100907.02;215227;1292;138755;-85
2023/05/29 11:13:53;;;;;;;5.90;2.80;;;;;;;35.70;24.86;100904.35;214472;1292;140120;-83
2023/05/29 11:18:53;;;;;;;7.30;3.10;;;;;;;35.02;25.02;100901.23;214176;1294;139618;-83
2023/05/29 11:23:54;;;;;;;7.90;3.40;;;;;;;35.07;24.63;100890.03;214824;1292;138192;-84
2023/05/29 11:28:58;;;;;;;10.80;3.40;;;;;;;34.74;25.45;100889.59;214108;1291;140409;-84
2023/05/29 11:34:04;;;;;;;30.50;4.80;;;;;;;34.56;25.32;100895.25;214917;1292;138018;-84
2023/05/29 11:39:05;;;;;;;5.90;2.70;;;;;;;34.33;25.39;100892.55;214094;1294;139704;-82
2023/05/29 11:44:06;;;;;;;9.10;2.70;;;;;;;33.95;25.38;100894.69;214700;1293;95356;-83
2023/05/29 11:49:06;;;;;;;6.20;2.50;;;;;;;33.79;25.27;100883.80;213959;1292;139915;-83
2023/05/29 11:54:07;;;;;;;6.70;3.70;;;;;;;33.48;25.74;100891.81;214580;1294;137766;-82
2023/05/29 11:59:11;;;;;;;6.90;2.80;;;;;;;33.29;26.13;100884.26;214068;1294;140318;-82
2023/05/29 12:04:15;;;;;;;5.60;2.80;;;;;;;33.31;26.31;100879.77;214363;1292;138268;-83
2023/05/29 12:09:26;;;;;;;9.20;2.70;;;;;;;33.38;26.22;100879.39;214058;1293;140421;-82
2023/05/29 12:14:26;;;;;;;6.20;2.30;;;;;;;33.38;25.11;100877.67;214728;1296;138066;-83
2023/05/29 12:19:28;;;;;;;8.60;2.50;;;;;;;33.17;25.81;100875.58;214636;1291;140371;-82
2023/05/29 12:24:30;;;;;;;6.80;2.50;;;;;;;33.07;25.60;100872.85;214908;1292;137614;-82
2023/05/29 12:29:32;;;;;;;7.20;2.70;;;;;;;33.16;25.32;100867.95;214176;1292;139709;-82
2023/05/29 12:34:36;;;;;;;6.10;2.80;;;;;;;33.26;25.57;100863.88;214499;1291;137642;-82
2023/05/29 12:39:36;;;;;;;6.30;2.40;;;;;;;33.26;25.73;100862.28;214171;1293;139522;-82
2023/05/29 12:44:38;;;;;;;4.10;2.00;;;;;;;33.35;25.92;100862.37;214603;1293;137716;-82
2023/05/29 12:49:38;;;;;;;5.20;2.90;;;;;;;33.36;26.11;100857.55;214130;1294;140402;-84
2023/05/29 12:54:39;;;;;;;7.70;2.40;;;;;;;33.13;25.96;100855.83;214885;1294;137597;-82
2023/05/29 12:59:40;;;;;;;4.80;2.30;;;;;;;33.06;26.70;100851.48;214058;1293;140813;-83
2023/05/29 13:04:40;;;;;;;4.80;2.20;;;;;;;32.98;25.72;100845.08;214778;1293;137794;-83
2023/05/29 13:09:40;;;;;;;8.10;3.10;;;;;;;32.55;25.07;100847.58;214248;1294;140463;-82
2023/05/29 13:14:41;;;;;;;6.10;2.70;;;;;;;32.17;24.03;100840.59;215014;1291;138235;-82
2023/05/29 13:19:41;;;;;;;9.10;3.20;;;;;;;31.82;25.82;100839.47;214718;1293;139866;-83
2023/05/29 13:24:42;;;;;;;7.40;2.40;;;;;;;31.92;26.93;100839.34;215091;1293;138736;-84
2023/05/29 13:29:43;;;;;;;5.90;2.60;;;;;;;31.95;26.08;100835.06;214577;1293;139850;-86
2023/05/29 13:34:44;;;;;;;5.70;2.90;;;;;;;31.82;26.97;100836.07;214871;1296;137668;-84
2023/05/29 13:39:44;;;;;;;5.50;2.50;;;;;;;31.89;27.28;100844.36;214510;1294;140774;-85
2023/05/29 13:44:45;;;;;;;5.90;2.50;;;;;;;31.84;26.82;100838.13;214833;1291;138304;-85
2023/05/29 13:49:46;;;;;;;6.40;2.60;;;;;;;31.72;26.60;100833.73;214631;1296;140798;-85
2023/05/29 13:54:46;;;;;;;5.40;2.50;;;;;;;31.34;25.89;100830.68;214868;1295;137791;-84
2023/05/29 13:59:46;;;;;;;7.70;3.10;;;;;;;30.84;25.64;100829.58;214496;1295;140410;-87
2023/05/29 14:04:47;;;;;;;4.50;2.20;;;;;;;30.29;25.98;100825.03;215132;1295;137817;-91
2023/05/29 14:09:47;;;;;;;5.00;2.30;;;;;;;29.99;26.56;100828.19;214363;1293;139912;-91
2023/05/29 14:14:48;;;;;;;6.50;2.60;;;;;;;29.91;27.99;100828.46;214917;1298;137670;-91
2023/05/29 14:19:48;;;;;;;6.30;2.70;;;;;;;29.95;28.87;100836.81;214705;1292;139667;-87
2023/05/29 14:24:49;;;;;;;6.20;2.70;;;;;;;30.10;28.40;100834.82;215226;1293;137556;-91
2023/05/29 14:29:49;;;;;;;5.30;2.60;;;;;;;30.03;29.28;100832.92;214733;1295;140558;-90
2023/05/29 14:34:51;;;;;;;4.60;2.00;;;;;;;29.97;28.17;100830.90;214947;1292;137655;-92
2023/05/29 14:39:51;;;;;;;4.70;2.20;;;;;;;29.59;29.03;100830.41;213726;1294;140131;-88
2023/05/29 14:44:52;;;;;;;7.40;2.50;;;;;;;29.42;29.80;100829.14;213456;1295;137964;-90
2023/05/29 14:49:52;;;;;;;5.80;2.60;;;;;;;29.37;29.79;100817.17;213051;1294;139858;-90
2023/05/29 14:54:53;;;;;;;7.60;2.50;;;;;;;29.28;29.48;100813.65;213521;1291;138129;-89
2023/05/29 14:59:53;;;;;;;4.80;2.10;;;;;;;29.01;29.34;100809.89;212831;1292;140338;-91
2023/05/29 15:04:56;;;;;;;6.30;2.10;;;;;;;28.89;29.86;100811.95;213430;1295;137815;-88
2023/05/29 15:09:56;;;;;;;4.50;2.10;;;;;;;28.68;29.77;100809.94;213002;1297;140800;-92
2023/05/29 15:14:56;;;;;;;5.60;2.10;;;;;;;28.55;30.44;100806.48;213382;1297;137681;-92
2023/05/29 15:19:57;;;;;;;7.00;2.20;;;;;;;28.24;29.89;100806.71;213346;1295;139494;-91
2023/05/29 15:24:57;;;;;;;8.00;2.70;;;;;;;27.90;30.91;100804.27;213574;1292;138128;-92
2023/05/29 15:30:09;;;;;;;10.60;2.70;;;;;;;27.90;31.55;100800.56;213260;1296;140115;-93
2023/05/29 15:35:11;;;;;;;6.10;2.50;;;;;;;27.77;31.55;100802.56;213474;1295;139042;-95
2023/05/29 15:40:12;;;;;;;7.00;2.50;;;;;;;27.55;30.96;100796.70;213167;1293;140227;-92
2023/05/29 15:45:14;;;;;;;5.50;2.30;;;;;;;27.02;31.15;100789.26;213655;1298;137738;-93
2023/05/29 15:50:15;;;;;;;6.70;2.70;;;;;;;26.78;31.16;100788.30;213866;1293;140464;-92
2023/05/29 15:55:17;;;;;;;4.80;2.40;;;;;;;26.56;30.71;100793.61;214040;1294;137444;-94
2023/05/29 16:00:18;;;;;;;6.40;2.50;;;;;;;26.19;30.92;100796.80;213197;1295;139681;-92
2023/05/29 16:05:18;;;;;;;6.70;2.80;;;;;;;25.96;31.05;100791.70;213952;1292;137877;-93
2023/05/29 16:10:19;;;;;;;5.40;2.30;;;;;;;25.71;31.29;100792.89;213480;1297;139820;-91
2023/05/29 16:15:20;;;;;;;6.10;2.30;;;;;;;25.44;31.77;100794.46;213977;1302;137881;-93
2023/05/29 16:20:22;;;;;;;5.60;2.70;;;;;;;25.28;32.28;100793.20;213553;1294;141680;-87
2023/05/29 16:25:23;;;;;;;6.30;1.90;;;;;;;24.82;31.62;100792.66;214060;1292;96574;-94
2023/05/29 16:30:23;;;;;;;5.40;2.50;;;;;;;24.51;32.75;100791.99;213131;1292;139778;-94
2023/05/29 16:35:24;;;;;;;9.30;2.60;;;;;;;24.27;32.99;100787.08;214387;1293;137858;-93
2023/05/29 16:40:25;;;;;;;7.00;2.70;;;;;;;24.07;33.45;100787.48;213638;1294;140650;-96
2023/05/29 16:45:26;;;;;;;6.50;2.50;;;;;;;23.91;34.22;100790.98;214236;1295;137665;-95
2023/05/29 16:50:27;;;;;;;6.80;2.50;;;;;;;23.73;34.37;100784.24;213676;1296;140123;-95
2023/05/29 16:55:27;;;;;;;7.20;2.40;;;;;;;23.50;34.76;100786.08;214053;1294;96598;-95
2023/05/29 17:00:28;;;;;;;6.20;2.60;;;;;;;23.27;35.58;100787.94;213976;1295;138879;-93
2023/05/29 17:05:28;;;;;;;8.10;2.60;;;;;;;23.14;36.23;100794.95;215011;1294;137591;-94
2023/05/29 17:10:33;;;;;;;6.70;3.10;;;;;;;23.00;36.24;100788.79;213110;1296;139611;-95
2023/05/29 17:15:33;;;;;;;11.40;2.60;;;;;;;22.81;36.87;100800.33;216693;1294;136683;-95
2023/05/29 17:20:35;;;;;;;9.30;3.30;;;;;;;22.63;37.14;100807.09;214130;1293;140687;-92
2023/05/29 17:25:35;;;;;;;10.20;3.00;;;;;;;22.34;37.34;100815.83;214507;1291;97115;-94
2023/05/29 17:30:37;;;;;;;9.60;2.80;;;;;;;22.09;37.78;100818.76;213531;1291;139603;-95
2023/05/29 17:35:37;;;;;;;6.60;2.50;;;;;;;21.87;37.86;100820.05;214248;1292;137640;-92
2023/05/29 17:40:38;;;;;;;7.80;2.50;;;;;;;21.67;38.14;100821.65;213446;1296;141281;-95
2023/05/29 17:45:38;;;;;;;8.40;2.80;;;;;;;21.51;38.59;100823.94;213896;1292;137601;-94
2023/05/29 17:50:39;;;;;;;9.80;2.50;;;;;;;21.30;39.08;100824.09;213643;1297;140839;-96
2023/05/29 17:55:39;;;;;;;8.80;2.90;;;;;;;21.15;39.54;100829.36;214404;1292;97959;-91
2023/05/29 18:00:39;;;;;;;8.90;3.40;;;;;;;21.01;39.95;100834.75;214336;1294;140804;-92
2023/05/29 18:05:40;;;;;;;10.90;3.80;;;;;;;20.83;40.02;100833.05;214144;1293;137650;-92
2023/05/29 18:10:41;;;;;;;8.50;3.30;;;;;;;20.64;40.61;100830.85;213951;1294;140346;-92
2023/05/29 18:15:42;;;;;;;18.90;7.80;;;;;;;20.44;40.93;100833.63;214180;1297;138326;-94
2023/05/29 18:20:43;;;;;;;14.20;5.90;;;;;;;20.26;41.62;100836.13;214137;1294;140694;-95
2023/05/29 18:25:43;;;;;;;10.00;4.60;;;;;;;20.10;41.84;100835.58;214457;1296;96609;-91
2023/05/29 18:30:44;;;;;;;10.50;3.50;;;;;;;19.92;42.16;100838.25;213008;1293;139275;-93
2023/05/29 18:35:44;;;;;;;10.80;3.70;;;;;;;19.74;42.71;100844.36;213659;1293;137684;-92
2023/05/29 18:40:46;;;;;;;12.80;3.70;;;;;;;19.53;43.05;100842.22;213177;1292;141042;-91
2023/05/29 18:45:47;;;;;;;8.80;3.30;;;;;;;19.32;43.21;100841.98;213454;1294;138220;-92
2023/05/29 18:50:47;;;;;;;9.00;2.80;;;;;;;19.13;43.72;100846.02;213138;1291;140297;-92
2023/05/29 18:55:47;;;;;;;9.20;3.40;;;;;;;18.92;44.06;100843.42;214632;1291;96629;-92
2023/05/29 19:00:48;;;;;;;10.10;3.50;;;;;;;18.74;44.37;100848.81;213758;1294;139652;-94
2023/05/29 19:05:48;;;;;;;9.40;3.20;;;;;;;18.57;44.71;100849.30;214363;1295;137589;-94
2023/05/29 19:10:49;;;;;;;11.30;3.30;;;;;;;18.37;44.87;100855.32;213850;1291;139741;-93
2023/05/29 19:15:49;;;;;;;8.70;3.00;;;;;;;18.19;45.56;100865.66;213628;1292;137798;-93
2023/05/29 19:20:50;;;;;;;13.30;3.10;;;;;;;17.99;46.05;100867.58;213234;1291;139714;-93
2023/05/29 19:25:51;;;;;;;9.30;2.90;;;;;;;17.83;46.11;100874.45;213840;1291;98061;-92
2023/05/29 19:30:52;;;;;;;8.90;2.90;;;;;;;17.68;46.36;100878.67;212955;1291;139442;-91
2023/05/29 19:35:52;;;;;;;10.70;2.80;;;;;;;17.50;46.82;100885.22;213834;1291;137453;-92
2023/05/29 19:40:52;;;;;;;8.70;3.30;;;;;;;17.35;47.28;100885.42;213309;1295;139282;-94
2023/05/29 19:45:53;;;;;;;12.70;3.40;;;;;;;17.18;47.77;100894.00;213853;1293;138593;-94
2023/05/29 19:50:54;;;;;;;8.20;2.70;;;;;;;17.00;48.78;100899.23;213776;1296;140064;-92
2023/05/29 19:55:56;;;;;;;8.70;2.90;;;;;;;16.83;48.96;100902.20;214389;1296;97660;-92
2023/05/29 20:00:57;;;;;;;9.70;2.80;;;;;;;16.67;48.78;100905.72;213543;1294;138883;-94
2023/05/29 20:05:58;;;;;;;16.20;3.60;;;;;;;16.52;49.00;100907.24;214025;1291;139329;-90
2023/05/29 20:10:59;;;;;;;9.10;2.70;;;;;;;16.38;49.31;100916.74;213674;1291;140597;-92
2023/05/29 20:15:59;;;;;;;8.10;2.50;;;;;;;16.24;49.43;100919.34;215659;1291;137841;-96
2023/05/29 20:20:59;;;;;;;7.70;2.40;;;;;;;16.08;49.67;100919.79;213948;1296;140230;-93
2023/05/29 20:26:00;;;;;;;8.00;2.50;;;;;;;15.95;50.26;100932.20;214615;1294;97953;-93
2023/05/29 20:31:00;;;;;;;8.30;2.40;;;;;;;15.79;50.56;100937.56;214016;1294;139235;-94
2023/05/29 20:36:01;;;;;;;9.90;2.80;;;;;;;15.63;50.98;100938.77;214874;1292;137708;-94
2023/05/29 20:41:02;;;;;;;6.40;2.40;;;;;;;15.49;51.16;100944.02;214529;1293;139709;-96
2023/05/29 20:46:03;;;;;;;11.90;2.80;;;;;;;15.32;51.42;100942.83;215997;1292;137785;-96
2023/05/29 20:51:04;;;;;;;11.20;3.20;;;;;;;15.16;51.68;100947.15;215074;1295;139716;-94
2023/05/29 20:56:05;;;;;;;6.50;2.30;;;;;;;14.95;52.11;100949.52;215255;1293;96607;-93
2023/05/29 21:01:05;;;;;;;11.50;2.50;;;;;;;14.75;52.35;100949.55;215064;1293;139645;-95
2023/05/29 21:06:07;;;;;;;7.70;2.70;;;;;;;14.61;52.78;100952.75;215647;1291;137766;-96
2023/05/29 21:11:08;;;;;;;15.90;4.30;;;;;;;14.42;53.25;100953.64;215920;1295;231780;-95
2023/05/29 21:16:08;;;;;;;10.10;2.80;;;;;;;14.29;53.74;100958.48;216006;1295;138082;-93
2023/05/29 21:21:11;;;;;;;10.10;2.60;;;;;;;14.12;54.25;100960.67;215124;1292;139770;-95
2023/05/29 21:26:13;;;;;;;8.70;2.80;;;;;;;13.95;54.75;100964.92;215501;1292;96785;-92
2023/05/29 21:31:14;;;;;;;7.50;2.30;;;;;;;13.81;54.99;100965.46;215568;1291;139608;-95
2023/05/29 21:36:16;;;;;;;9.40;2.50;;;;;;;13.70;55.34;100962.55;215568;1292;137702;-93
2023/05/29 21:41:16;;;;;;;9.20;2.90;;;;;;;13.60;55.65;100961.52;213981;1293;139738;-93
2023/05/29 21:46:17;;;;;;;10.50;2.70;;;;;;;13.49;56.16;100959.15;214924;1291;137756;-93
2023/05/29 21:51:17;;;;;;;8.50;2.40;;;;;;;13.40;56.54;100961.69;214042;1291;140578;-92
2023/05/29 21:56:18;;;;;;;8.00;2.50;;;;;;;13.32;57.27;100964.95;214504;1291;96517;-93
2023/05/29 22:01:18;;;;;;;8.80;2.90;;;;;;;13.26;57.79;100967.73;213524;1293;139433;-92
2023/05/29 22:06:19;;;;;;;9.60;3.20;;;;;;;13.20;57.68;100966.17;214043;1292;137485;-92
2023/05/29 22:11:19;;;;;;;8.50;2.40;;;;;;;13.15;57.81;100965.50;213547;1293;140458;-93
2023/05/29 22:16:20;;;;;;;9.50;2.30;;;;;;;13.09;57.89;100963.46;214069;1296;137920;-93
2023/05/29 22:21:24;;;;;;;8.70;2.50;;;;;;;13.05;58.06;100961.13;214034;1291;139748;-93
2023/05/29 22:26:25;;;;;;;10.50;2.50;;;;;;;13.01;58.17;100961.19;214910;1291;137575;-93
2023/05/29 22:31:26;;;;;;;6.00;2.30;;;;;;;12.94;58.12;100963.45;214297;1293;139748;-93
2023/05/29 22:36:29;;;;;;;9.90;2.50;;;;;;;12.89;58.49;100966.31;215551;1293;137709;-92
2023/05/29 22:41:29;;;;;;;10.20;2.10;;;;;;;12.86;58.61;100966.75;214358;1291;315297;-94
2023/05/29 22:46:30;;;;;;;8.40;2.20;;;;;;;12.83;58.39;100964.76;214974;1293;138134;-95
2023/05/29 22:51:32;;;;;;;10.10;3.00;;;;;;;12.81;58.95;100965.29;214860;1292;139812;-93